sensor_id;sensor_type;location;lat;lon;timestamp;temperature;humidity
10314;DHT22;5202;49.138;10.090;2023-08-24T00:00:53;18.70;99.70
10314;DHT22;5202;49.138;10.090;2023-08-24T00:03:45;18.60;99.80
10314;DHT22;5202;49.138;10.090;2023-08-24T00:06:14;18.60;99.90
10314;DHT22;5202;49.138;10.090;2023-08-24T00:08:47;18.50;99.90
10314;DHT22;5202;49.138;10.090;2023-08-24T00:11:15;18.50;99.90
10314;DHT22;5202;49.138;10.090;2023-08-24T00:13:45;18.40;99.90
10314;DHT22;5202;49.138;10.090;2023-08-24T00:16:16;18.40;99.90
10314;DHT22;5202;49.138;10.090;2023-08-24T00:18:45;18.30;99.90
10314;DHT22;5202;49.138;10.090;2023-08-24T00:21:14;18.20;99.90
10314;DHT22;5202;49.138;10.090;2023-08-24T00:23:44;18.20;99.90
10314;DHT22;5202;49.138;10.090;2023-08-24T00:26:12;18.20;99.90
10314;DHT22;5202;49.138;10.090;2023-08-24T00:28:45;18.20;99.90
10314;DHT22;5202;49.138;10.090;2023-08-24T00:31:15;18.20;99.90
10314;DHT22;5202;49.138;10.090;2023-08-24T00:33:44;18.10;99.90
10314;DHT22;5202;49.138;10.090;2023-08-24T00:36:13;18.00;99.90
10314;DHT22;5202;49.138;10.090;2023-08-24T00:38:43;18.00;99.90
10314;DHT22;5202;49.138;10.090;2023-08-24T00:41:13;18.00;99.90
10314;DHT22;5202;49.138;10.090;2023-08-24T00:43:41;18.10;99.90
10314;DHT22;5202;49.138;10.090;2023-08-24T00:46:11;18.10;99.90
10314;DHT22;5202;49.138;10.090;2023-08-24T00:48:40;18.10;99.90
10314;DHT22;5202;49.138;10.090;2023-08-24T00:51:10;18.10;99.90
10314;DHT22;5202;49.138;10.090;2023-08-24T00:53:39;18.10;99.90
10314;DHT22;5202;49.138;10.090;2023-08-24T00:56:07;18.00;99.90
10314;DHT22;5202;49.138;10.090;2023-08-24T00:58:38;17.90;99.90
10314;DHT22;5202;49.138;10.090;2023-08-24T01:01:06;17.80;99.90
10314;DHT22;5202;49.138;10.090;2023-08-24T01:03:36;17.80;99.90
10314;DHT22;5202;49.138;10.090;2023-08-24T01:06:05;17.70;99.90
10314;DHT22;5202;49.138;10.090;2023-08-24T01:08:34;17.70;99.90
10314;DHT22;5202;49.138;10.090;2023-08-24T01:11:08;17.70;99.90
10314;DHT22;5202;49.138;10.090;2023-08-24T01:13:49;17.70;99.90
10314;DHT22;5202;49.138;10.090;2023-08-24T01:16:26;17.70;99.90
10314;DHT22;5202;49.138;10.090;2023-08-24T01:18:58;17.60;99.90
10314;DHT22;5202;49.138;10.090;2023-08-24T01:21:28;17.70;99.90
10314;DHT22;5202;49.138;10.090;2023-08-24T01:24:03;17.60;99.90
10314;DHT22;5202;49.138;10.090;2023-08-24T01:26:41;17.60;99.90
10314;DHT22;5202;49.138;10.090;2023-08-24T01:29:10;17.50;99.90
10314;DHT22;5202;49.138;10.090;2023-08-24T01:31:38;17.60;99.90
10314;DHT22;5202;49.138;10.090;2023-08-24T01:34:07;17.50;99.90
10314;DHT22;5202;49.138;10.090;2023-08-24T01:36:35;17.50;99.90
10314;DHT22;5202;49.138;10.090;2023-08-24T01:39:10;17.50;99.90
10314;DHT22;5202;49.138;10.090;2023-08-24T01:42:02;17.40;99.90
10314;DHT22;5202;49.138;10.090;2023-08-24T01:44:35;17.40;99.90
10314;DHT22;5202;49.138;10.090;2023-08-24T01:47:07;17.30;99.90
10314;DHT22;5202;49.138;10.090;2023-08-24T01:49:39;17.30;99.90
10314;DHT22;5202;49.138;10.090;2023-08-24T01:52:09;17.30;99.90
10314;DHT22;5202;49.138;10.090;2023-08-24T01:54:38;17.20;99.90
10314;DHT22;5202;49.138;10.090;2023-08-24T01:57:09;17.20;99.90
10314;DHT22;5202;49.138;10.090;2023-08-24T01:59:38;17.20;99.90
10314;DHT22;5202;49.138;10.090;2023-08-24T02:02:06;17.30;99.90
10314;DHT22;5202;49.138;10.090;2023-08-24T02:04:42;17.30;99.90
10314;DHT22;5202;49.138;10.090;2023-08-24T02:07:18;17.30;99.90
10314;DHT22;5202;49.138;10.090;2023-08-24T02:09:46;17.30;99.90
10314;DHT22;5202;49.138;10.090;2023-08-24T02:12:16;17.30;99.90
10314;DHT22;5202;49.138;10.090;2023-08-24T02:14:44;17.20;99.90
10314;DHT22;5202;49.138;10.090;2023-08-24T02:17:15;17.10;99.90
10314;DHT22;5202;49.138;10.090;2023-08-24T02:19:43;17.10;99.90
10314;DHT22;5202;49.138;10.090;2023-08-24T02:22:12;17.00;99.90
10314;DHT22;5202;49.138;10.090;2023-08-24T02:24:40;17.10;99.90
10314;DHT22;5202;49.138;10.090;2023-08-24T02:27:09;17.10;99.90
10314;DHT22;5202;49.138;10.090;2023-08-24T02:29:40;17.10;99.90
10314;DHT22;5202;49.138;10.090;2023-08-24T02:32:08;17.10;99.90
10314;DHT22;5202;49.138;10.090;2023-08-24T02:34:37;17.10;99.90
10314;DHT22;5202;49.138;10.090;2023-08-24T02:37:07;17.20;99.90
10314;DHT22;5202;49.138;10.090;2023-08-24T02:39:35;17.10;99.90
10314;DHT22;5202;49.138;10.090;2023-08-24T02:42:04;17.20;99.90
10314;DHT22;5202;49.138;10.090;2023-08-24T02:44:33;17.20;99.90
10314;DHT22;5202;49.138;10.090;2023-08-24T02:47:04;17.20;99.90
10314;DHT22;5202;49.138;10.090;2023-08-24T02:49:33;17.10;99.90
10314;DHT22;5202;49.138;10.090;2023-08-24T02:52:03;17.10;99.90
10314;DHT22;5202;49.138;10.090;2023-08-24T02:54:31;17.00;99.90
10314;DHT22;5202;49.138;10.090;2023-08-24T02:57:00;16.90;99.90
10314;DHT22;5202;49.138;10.090;2023-08-24T02:59:28;16.80;99.90
10314;DHT22;5202;49.138;10.090;2023-08-24T03:01:56;16.80;99.90
10314;DHT22;5202;49.138;10.090;2023-08-24T03:04:26;16.80;99.90
10314;DHT22;5202;49.138;10.090;2023-08-24T03:06:55;16.70;99.90
10314;DHT22;5202;49.138;10.090;2023-08-24T03:09:24;16.70;99.90
10314;DHT22;5202;49.138;10.090;2023-08-24T03:11:52;16.70;99.90
10314;DHT22;5202;49.138;10.090;2023-08-24T03:14:20;16.80;99.90
10314;DHT22;5202;49.138;10.090;2023-08-24T03:16:49;16.80;99.90
10314;DHT22;5202;49.138;10.090;2023-08-24T03:19:17;16.80;99.90
10314;DHT22;5202;49.138;10.090;2023-08-24T03:21:47;16.80;99.90
10314;DHT22;5202;49.138;10.090;2023-08-24T03:24:15;16.80;99.90
10314;DHT22;5202;49.138;10.090;2023-08-24T03:26:44;16.80;99.90
10314;DHT22;5202;49.138;10.090;2023-08-24T03:29:13;16.80;99.90
10314;DHT22;5202;49.138;10.090;2023-08-24T03:31:41;16.80;99.90
10314;DHT22;5202;49.138;10.090;2023-08-24T03:34:10;16.70;99.90
10314;DHT22;5202;49.138;10.090;2023-08-24T03:36:39;16.70;99.90
10314;DHT22;5202;49.138;10.090;2023-08-24T03:39:09;16.70;99.90
10314;DHT22;5202;49.138;10.090;2023-08-24T03:41:38;16.70;99.90
10314;DHT22;5202;49.138;10.090;2023-08-24T03:44:06;16.70;99.90
10314;DHT22;5202;49.138;10.090;2023-08-24T03:46:35;16.70;99.90
10314;DHT22;5202;49.138;10.090;2023-08-24T03:49:03;16.70;99.90
10314;DHT22;5202;49.138;10.090;2023-08-24T03:51:32;16.60;99.90
10314;DHT22;5202;49.138;10.090;2023-08-24T03:54:01;16.60;99.90
10314;DHT22;5202;49.138;10.090;2023-08-24T03:56:31;16.50;99.90
10314;DHT22;5202;49.138;10.090;2023-08-24T03:59:00;16.40;99.90
10314;DHT22;5202;49.138;10.090;2023-08-24T04:01:29;16.40;99.90
10314;DHT22;5202;49.138;10.090;2023-08-24T04:04:03;16.30;99.90
10314;DHT22;5202;49.138;10.090;2023-08-24T04:06:35;16.30;99.90
10314;DHT22;5202;49.138;10.090;2023-08-24T04:09:05;16.30;99.90
10314;DHT22;5202;49.138;10.090;2023-08-24T04:11:35;16.20;99.90
10314;DHT22;5202;49.138;10.090;2023-08-24T04:14:04;16.30;99.90
10314;DHT22;5202;49.138;10.090;2023-08-24T04:16:32;16.20;99.90
10314;DHT22;5202;49.138;10.090;2023-08-24T04:19:01;16.20;99.90
10314;DHT22;5202;49.138;10.090;2023-08-24T04:21:29;16.20;99.90
10314;DHT22;5202;49.138;10.090;2023-08-24T04:23:58;16.20;99.90
10314;DHT22;5202;49.138;10.090;2023-08-24T04:26:26;16.20;99.90
10314;DHT22;5202;49.138;10.090;2023-08-24T04:28:56;16.20;99.90
10314;DHT22;5202;49.138;10.090;2023-08-24T04:31:24;16.20;99.90
10314;DHT22;5202;49.138;10.090;2023-08-24T04:33:53;16.30;99.90
10314;DHT22;5202;49.138;10.090;2023-08-24T04:36:21;16.40;99.90
10314;DHT22;5202;49.138;10.090;2023-08-24T04:38:49;16.40;99.90
10314;DHT22;5202;49.138;10.090;2023-08-24T04:41:18;16.40;99.90
10314;DHT22;5202;49.138;10.090;2023-08-24T04:43:47;16.40;99.90
10314;DHT22;5202;49.138;10.090;2023-08-24T04:46:17;16.40;99.90
10314;DHT22;5202;49.138;10.090;2023-08-24T04:48:45;16.40;99.90
10314;DHT22;5202;49.138;10.090;2023-08-24T04:51:14;16.40;99.90
10314;DHT22;5202;49.138;10.090;2023-08-24T04:53:42;16.40;99.90
10314;DHT22;5202;49.138;10.090;2023-08-24T04:56:10;16.40;99.90
10314;DHT22;5202;49.138;10.090;2023-08-24T04:58:39;16.50;99.90
10314;DHT22;5202;49.138;10.090;2023-08-24T05:01:07;16.60;99.90
10314;DHT22;5202;49.138;10.090;2023-08-24T05:03:37;16.80;99.90
10314;DHT22;5202;49.138;10.090;2023-08-24T05:06:05;16.80;99.90
10314;DHT22;5202;49.138;10.090;2023-08-24T05:08:33;16.70;99.90
10314;DHT22;5202;49.138;10.090;2023-08-24T05:11:07;16.80;99.90
10314;DHT22;5202;49.138;10.090;2023-08-24T05:13:39;16.80;99.90
10314;DHT22;5202;49.138;10.090;2023-08-24T05:16:10;16.80;99.90
10314;DHT22;5202;49.138;10.090;2023-08-24T05:18:40;16.80;99.90
10314;DHT22;5202;49.138;10.090;2023-08-24T05:21:08;16.80;99.90
10314;DHT22;5202;49.138;10.090;2023-08-24T05:23:37;16.80;99.90
10314;DHT22;5202;49.138;10.090;2023-08-24T05:26:05;16.90;99.90
10314;DHT22;5202;49.138;10.090;2023-08-24T05:28:33;16.90;99.90
10314;DHT22;5202;49.138;10.090;2023-08-24T05:31:02;17.00;99.90
10314;DHT22;5202;49.138;10.090;2023-08-24T05:33:30;17.10;99.90
10314;DHT22;5202;49.138;10.090;2023-08-24T05:36:02;17.10;99.90
10314;DHT22;5202;49.138;10.090;2023-08-24T05:38:30;17.20;99.90
10314;DHT22;5202;49.138;10.090;2023-08-24T05:40:59;17.30;99.90
10314;DHT22;5202;49.138;10.090;2023-08-24T05:43:27;17.30;99.90
10314;DHT22;5202;49.138;10.090;2023-08-24T05:45:56;17.30;99.90
10314;DHT22;5202;49.138;10.090;2023-08-24T05:48:24;17.40;99.90
10314;DHT22;5202;49.138;10.090;2023-08-24T05:50:53;17.40;99.90
10314;DHT22;5202;49.138;10.090;2023-08-24T05:53:23;17.50;99.90
10314;DHT22;5202;49.138;10.090;2023-08-24T05:55:51;17.60;99.90
10314;DHT22;5202;49.138;10.090;2023-08-24T05:58:25;17.60;99.90
10314;DHT22;5202;49.138;10.090;2023-08-24T06:00:57;17.80;99.90
10314;DHT22;5202;49.138;10.090;2023-08-24T06:03:26;17.90;99.90
10314;DHT22;5202;49.138;10.090;2023-08-24T06:06:01;18.00;99.90
10314;DHT22;5202;49.138;10.090;2023-08-24T06:08:32;18.10;99.90
10314;DHT22;5202;49.138;10.090;2023-08-24T06:11:00;18.20;99.90
10314;DHT22;5202;49.138;10.090;2023-08-24T06:13:29;18.30;99.90
10314;DHT22;5202;49.138;10.090;2023-08-24T06:15:57;18.50;99.90
10314;DHT22;5202;49.138;10.090;2023-08-24T06:18:26;18.70;99.90
10314;DHT22;5202;49.138;10.090;2023-08-24T06:20:54;18.90;99.90
10314;DHT22;5202;49.138;10.090;2023-08-24T06:23:23;19.10;99.90
10314;DHT22;5202;49.138;10.090;2023-08-24T06:25:52;19.30;99.90
10314;DHT22;5202;49.138;10.090;2023-08-24T06:28:21;19.50;99.90
10314;DHT22;5202;49.138;10.090;2023-08-24T06:30:49;19.70;99.90
10314;DHT22;5202;49.138;10.090;2023-08-24T06:33:18;19.90;99.90
10314;DHT22;5202;49.138;10.090;2023-08-24T06:35:46;20.10;99.90
10314;DHT22;5202;49.138;10.090;2023-08-24T06:38:16;20.30;99.90
10314;DHT22;5202;49.138;10.090;2023-08-24T06:40:47;20.50;99.90
10314;DHT22;5202;49.138;10.090;2023-08-24T06:43:16;20.50;99.90
10314;DHT22;5202;49.138;10.090;2023-08-24T06:45:45;20.70;99.90
10314;DHT22;5202;49.138;10.090;2023-08-24T06:48:13;20.60;99.90
10314;DHT22;5202;49.138;10.090;2023-08-24T06:50:42;20.60;99.90
10314;DHT22;5202;49.138;10.090;2023-08-24T06:53:10;20.60;99.90
10314;DHT22;5202;49.138;10.090;2023-08-24T06:55:39;20.70;99.90
10314;DHT22;5202;49.138;10.090;2023-08-24T06:58:07;20.80;99.90
10314;DHT22;5202;49.138;10.090;2023-08-24T07:00:37;21.00;99.90
10314;DHT22;5202;49.138;10.090;2023-08-24T07:03:06;21.10;99.90
10314;DHT22;5202;49.138;10.090;2023-08-24T07:05:35;21.40;99.90
10314;DHT22;5202;49.138;10.090;2023-08-24T07:08:04;21.50;99.80
10314;DHT22;5202;49.138;10.090;2023-08-24T07:10:32;21.80;99.30
10314;DHT22;5202;49.138;10.090;2023-08-24T07:13:01;21.80;98.50
10314;DHT22;5202;49.138;10.090;2023-08-24T07:15:29;21.80;98.90
10314;DHT22;5202;49.138;10.090;2023-08-24T07:17:59;21.80;99.10
10314;DHT22;5202;49.138;10.090;2023-08-24T07:20:28;21.90;99.20
10314;DHT22;5202;49.138;10.090;2023-08-24T07:22:57;21.80;98.90
10314;DHT22;5202;49.138;10.090;2023-08-24T07:25:25;21.80;98.60
10314;DHT22;5202;49.138;10.090;2023-08-24T07:27:55;21.90;98.80
10314;DHT22;5202;49.138;10.090;2023-08-24T07:30:25;21.90;98.70
10314;DHT22;5202;49.138;10.090;2023-08-24T07:33:02;21.90;99.00
10314;DHT22;5202;49.138;10.090;2023-08-24T07:35:31;22.00;99.20
10314;DHT22;5202;49.138;10.090;2023-08-24T07:38:00;22.10;99.00
10314;DHT22;5202;49.138;10.090;2023-08-24T07:40:29;22.20;99.00
10314;DHT22;5202;49.138;10.090;2023-08-24T07:42:58;22.30;98.90
10314;DHT22;5202;49.138;10.090;2023-08-24T07:45:27;22.50;99.40
10314;DHT22;5202;49.138;10.090;2023-08-24T07:47:56;22.50;98.80
10314;DHT22;5202;49.138;10.090;2023-08-24T07:50:26;22.50;98.40
10314;DHT22;5202;49.138;10.090;2023-08-24T07:52:54;22.50;98.50
10314;DHT22;5202;49.138;10.090;2023-08-24T07:55:24;22.50;98.30
10314;DHT22;5202;49.138;10.090;2023-08-24T07:57:52;22.60;97.90
10314;DHT22;5202;49.138;10.090;2023-08-24T08:00:21;22.80;97.60
10314;DHT22;5202;49.138;10.090;2023-08-24T08:02:51;22.90;97.50
10314;DHT22;5202;49.138;10.090;2023-08-24T08:05:21;23.10;97.40
10314;DHT22;5202;49.138;10.090;2023-08-24T08:07:51;23.30;96.20
10314;DHT22;5202;49.138;10.090;2023-08-24T08:10:20;23.60;96.70
10314;DHT22;5202;49.138;10.090;2023-08-24T08:12:49;23.90;96.70
10314;DHT22;5202;49.138;10.090;2023-08-24T08:15:19;23.90;96.00
10314;DHT22;5202;49.138;10.090;2023-08-24T08:17:48;23.80;96.60
10314;DHT22;5202;49.138;10.090;2023-08-24T08:20:17;23.80;96.10
10314;DHT22;5202;49.138;10.090;2023-08-24T08:22:46;23.80;95.90
10314;DHT22;5202;49.138;10.090;2023-08-24T08:25:16;23.90;95.90
10314;DHT22;5202;49.138;10.090;2023-08-24T08:27:45;24.00;95.80
10314;DHT22;5202;49.138;10.090;2023-08-24T08:30:14;24.10;95.80
10314;DHT22;5202;49.138;10.090;2023-08-24T08:32:42;24.30;95.90
10314;DHT22;5202;49.138;10.090;2023-08-24T08:35:11;24.30;95.50
10314;DHT22;5202;49.138;10.090;2023-08-24T08:37:39;24.30;95.20
10314;DHT22;5202;49.138;10.090;2023-08-24T08:40:10;24.40;95.40
10314;DHT22;5202;49.138;10.090;2023-08-24T08:42:41;24.40;95.00
10314;DHT22;5202;49.138;10.090;2023-08-24T08:45:10;24.60;95.20
10314;DHT22;5202;49.138;10.090;2023-08-24T08:47:39;24.80;94.80
10314;DHT22;5202;49.138;10.090;2023-08-24T08:50:09;24.90;94.30
10314;DHT22;5202;49.138;10.090;2023-08-24T08:52:38;25.10;94.40
10314;DHT22;5202;49.138;10.090;2023-08-24T08:55:07;25.20;94.30
10314;DHT22;5202;49.138;10.090;2023-08-24T08:57:38;25.40;93.80
10314;DHT22;5202;49.138;10.090;2023-08-24T09:00:11;25.50;93.60
10314;DHT22;5202;49.138;10.090;2023-08-24T09:02:43;25.70;92.80
10314;DHT22;5202;49.138;10.090;2023-08-24T09:05:12;25.90;93.10
10314;DHT22;5202;49.138;10.090;2023-08-24T09:07:41;25.90;92.50
10314;DHT22;5202;49.138;10.090;2023-08-24T09:10:10;25.90;92.80
10314;DHT22;5202;49.138;10.090;2023-08-24T09:12:38;26.00;93.20
10314;DHT22;5202;49.138;10.090;2023-08-24T09:15:08;26.10;92.70
10314;DHT22;5202;49.138;10.090;2023-08-24T09:17:42;26.10;93.30
10314;DHT22;5202;49.138;10.090;2023-08-24T09:20:13;26.20;93.00
10314;DHT22;5202;49.138;10.090;2023-08-24T09:22:42;26.20;92.40
10314;DHT22;5202;49.138;10.090;2023-08-24T09:25:11;26.30;92.10
10314;DHT22;5202;49.138;10.090;2023-08-24T09:27:40;26.50;92.30
10314;DHT22;5202;49.138;10.090;2023-08-24T09:30:10;26.60;92.00
10314;DHT22;5202;49.138;10.090;2023-08-24T09:32:41;26.60;91.50
10314;DHT22;5202;49.138;10.090;2023-08-24T09:35:11;26.70;91.60
10314;DHT22;5202;49.138;10.090;2023-08-24T09:37:40;26.80;91.20
10314;DHT22;5202;49.138;10.090;2023-08-24T09:40:12;26.90;91.30
10314;DHT22;5202;49.138;10.090;2023-08-24T09:42:42;27.10;91.10
10314;DHT22;5202;49.138;10.090;2023-08-24T09:45:12;27.20;90.90
10314;DHT22;5202;49.138;10.090;2023-08-24T09:47:49;27.30;90.70
10314;DHT22;5202;49.138;10.090;2023-08-24T09:50:18;27.40;90.50
10314;DHT22;5202;49.138;10.090;2023-08-24T09:52:47;27.60;91.00
10314;DHT22;5202;49.138;10.090;2023-08-24T09:55:20;27.70;90.40
10314;DHT22;5202;49.138;10.090;2023-08-24T09:57:53;27.80;90.40
10314;DHT22;5202;49.138;10.090;2023-08-24T10:00:25;27.90;90.10
10314;DHT22;5202;49.138;10.090;2023-08-24T10:02:55;28.10;90.40
10314;DHT22;5202;49.138;10.090;2023-08-24T10:05:26;28.20;90.10
10314;DHT22;5202;49.138;10.090;2023-08-24T10:08:17;28.30;90.00
10314;DHT22;5202;49.138;10.090;2023-08-24T10:10:53;28.40;89.90
10314;DHT22;5202;49.138;10.090;2023-08-24T10:13:32;28.60;88.00
10314;DHT22;5202;49.138;10.090;2023-08-24T10:16:05;28.60;88.90
10314;DHT22;5202;49.138;10.090;2023-08-24T10:18:36;28.70;88.00
10314;DHT22;5202;49.138;10.090;2023-08-24T10:21:05;28.80;86.60
10314;DHT22;5202;49.138;10.090;2023-08-24T10:23:35;28.90;85.30
10314;DHT22;5202;49.138;10.090;2023-08-24T10:26:05;28.80;85.60
10314;DHT22;5202;49.138;10.090;2023-08-24T10:28:35;28.90;85.70
10314;DHT22;5202;49.138;10.090;2023-08-24T10:31:06;29.10;86.10
10314;DHT22;5202;49.138;10.090;2023-08-24T10:33:36;29.10;86.00
10314;DHT22;5202;49.138;10.090;2023-08-24T10:36:05;29.30;85.90
10314;DHT22;5202;49.138;10.090;2023-08-24T10:38:39;29.40;86.50
10314;DHT22;5202;49.138;10.090;2023-08-24T10:41:09;29.50;86.60
10314;DHT22;5202;49.138;10.090;2023-08-24T10:43:48;29.60;85.10
10314;DHT22;5202;49.138;10.090;2023-08-24T10:46:17;29.70;84.80
10314;DHT22;5202;49.138;10.090;2023-08-24T10:48:59;29.80;86.20
10314;DHT22;5202;49.138;10.090;2023-08-24T10:51:28;29.90;83.40
10314;DHT22;5202;49.138;10.090;2023-08-24T10:53:59;29.80;83.40
10314;DHT22;5202;49.138;10.090;2023-08-24T10:56:35;29.70;83.10
10314;DHT22;5202;49.138;10.090;2023-08-24T10:59:10;29.90;84.40
10314;DHT22;5202;49.138;10.090;2023-08-24T11:01:43;30.10;83.70
10314;DHT22;5202;49.138;10.090;2023-08-24T11:04:24;30.20;84.00
10314;DHT22;5202;49.138;10.090;2023-08-24T11:06:54;30.40;83.60
10314;DHT22;5202;49.138;10.090;2023-08-24T11:09:24;30.60;84.00
10314;DHT22;5202;49.138;10.090;2023-08-24T11:11:59;30.70;83.10
10314;DHT22;5202;49.138;10.090;2023-08-24T11:14:29;30.80;82.60
10314;DHT22;5202;49.138;10.090;2023-08-24T11:17:00;30.90;82.80
10314;DHT22;5202;49.138;10.090;2023-08-24T11:19:31;31.00;81.90
10314;DHT22;5202;49.138;10.090;2023-08-24T11:21:59;31.00;82.40
10314;DHT22;5202;49.138;10.090;2023-08-24T11:24:28;31.00;80.00
10314;DHT22;5202;49.138;10.090;2023-08-24T11:26:57;30.80;80.40
10314;DHT22;5202;49.138;10.090;2023-08-24T11:29:29;30.80;82.20
10314;DHT22;5202;49.138;10.090;2023-08-24T11:31:57;30.80;83.20
10314;DHT22;5202;49.138;10.090;2023-08-24T11:34:26;30.80;82.60
10314;DHT22;5202;49.138;10.090;2023-08-24T11:36:56;30.80;82.50
10314;DHT22;5202;49.138;10.090;2023-08-24T11:39:25;30.90;82.50
10314;DHT22;5202;49.138;10.090;2023-08-24T11:42:00;31.00;82.20
10314;DHT22;5202;49.138;10.090;2023-08-24T11:44:30;31.20;82.40
10314;DHT22;5202;49.138;10.090;2023-08-24T11:47:12;31.20;81.80
10314;DHT22;5202;49.138;10.090;2023-08-24T11:49:41;31.40;82.40
10314;DHT22;5202;49.138;10.090;2023-08-24T11:52:11;31.60;82.30
10314;DHT22;5202;49.138;10.090;2023-08-24T11:54:43;31.80;82.20
10314;DHT22;5202;49.138;10.090;2023-08-24T11:57:13;31.80;81.60
10314;DHT22;5202;49.138;10.090;2023-08-24T11:59:41;32.00;82.40
10314;DHT22;5202;49.138;10.090;2023-08-24T12:02:10;32.10;80.10
10314;DHT22;5202;49.138;10.090;2023-08-24T12:04:39;32.20;79.90
10314;DHT22;5202;49.138;10.090;2023-08-24T12:07:15;32.30;80.40
10314;DHT22;5202;49.138;10.090;2023-08-24T12:09:45;32.30;80.10
10314;DHT22;5202;49.138;10.090;2023-08-24T12:12:14;32.40;80.40
10314;DHT22;5202;49.138;10.090;2023-08-24T12:14:43;32.50;80.30
10314;DHT22;5202;49.138;10.090;2023-08-24T12:17:14;32.40;77.60
10314;DHT22;5202;49.138;10.090;2023-08-24T12:19:44;32.40;80.10
10314;DHT22;5202;49.138;10.090;2023-08-24T12:22:14;32.60;78.70
10314;DHT22;5202;49.138;10.090;2023-08-24T12:24:44;32.70;78.00
10314;DHT22;5202;49.138;10.090;2023-08-24T12:27:19;32.80;76.90
10314;DHT22;5202;49.138;10.090;2023-08-24T12:29:48;32.90;75.90
10314;DHT22;5202;49.138;10.090;2023-08-24T12:32:18;33.00;75.10
10314;DHT22;5202;49.138;10.090;2023-08-24T12:34:50;33.00;74.90
10314;DHT22;5202;49.138;10.090;2023-08-24T12:37:20;33.10;74.30
10314;DHT22;5202;49.138;10.090;2023-08-24T12:39:48;33.20;74.50
10314;DHT22;5202;49.138;10.090;2023-08-24T12:42:17;33.20;74.70
10314;DHT22;5202;49.138;10.090;2023-08-24T12:44:45;33.30;73.90
10314;DHT22;5202;49.138;10.090;2023-08-24T12:47:14;33.30;71.90
10314;DHT22;5202;49.138;10.090;2023-08-24T12:49:42;33.30;71.90
10314;DHT22;5202;49.138;10.090;2023-08-24T12:52:11;33.30;72.50
10314;DHT22;5202;49.138;10.090;2023-08-24T12:54:40;33.50;72.00
10314;DHT22;5202;49.138;10.090;2023-08-24T12:57:09;33.70;72.20
10314;DHT22;5202;49.138;10.090;2023-08-24T12:59:37;33.80;72.70
10314;DHT22;5202;49.138;10.090;2023-08-24T13:02:06;33.80;72.40
10314;DHT22;5202;49.138;10.090;2023-08-24T13:04:34;33.70;72.10
10314;DHT22;5202;49.138;10.090;2023-08-24T13:07:03;33.80;72.50
10314;DHT22;5202;49.138;10.090;2023-08-24T13:09:31;33.80;71.40
10314;DHT22;5202;49.138;10.090;2023-08-24T13:12:01;33.80;71.70
10314;DHT22;5202;49.138;10.090;2023-08-24T13:14:30;33.90;71.40
10314;DHT22;5202;49.138;10.090;2023-08-24T13:16:59;34.00;70.90
10314;DHT22;5202;49.138;10.090;2023-08-24T13:19:27;34.00;69.70
10314;DHT22;5202;49.138;10.090;2023-08-24T13:21:55;34.00;68.60
10314;DHT22;5202;49.138;10.090;2023-08-24T13:24:24;33.80;68.10
10314;DHT22;5202;49.138;10.090;2023-08-24T13:26:52;33.70;69.20
10314;DHT22;5202;49.138;10.090;2023-08-24T13:29:22;33.80;70.00
10314;DHT22;5202;49.138;10.090;2023-08-24T13:31:51;33.90;69.90
10314;DHT22;5202;49.138;10.090;2023-08-24T13:34:19;33.90;69.20
10314;DHT22;5202;49.138;10.090;2023-08-24T13:36:48;33.80;68.80
10314;DHT22;5202;49.138;10.090;2023-08-24T13:39:16;33.80;69.30
10314;DHT22;5202;49.138;10.090;2023-08-24T13:41:44;33.80;68.40
10314;DHT22;5202;49.138;10.090;2023-08-24T13:44:13;33.80;68.80
10314;DHT22;5202;49.138;10.090;2023-08-24T13:46:43;33.70;69.40
10314;DHT22;5202;49.138;10.090;2023-08-24T13:49:11;33.70;69.20
10314;DHT22;5202;49.138;10.090;2023-08-24T13:51:51;33.70;69.60
10314;DHT22;5202;49.138;10.090;2023-08-24T13:54:20;33.80;70.10
10314;DHT22;5202;49.138;10.090;2023-08-24T13:56:48;34.00;69.50
10314;DHT22;5202;49.138;10.090;2023-08-24T13:59:17;34.10;69.40
10314;DHT22;5202;49.138;10.090;2023-08-24T14:01:46;34.20;68.70
10314;DHT22;5202;49.138;10.090;2023-08-24T14:04:19;34.50;68.40
10314;DHT22;5202;49.138;10.090;2023-08-24T14:06:48;34.50;68.60
10314;DHT22;5202;49.138;10.090;2023-08-24T14:09:16;34.60;67.70
10314;DHT22;5202;49.138;10.090;2023-08-24T14:11:45;34.70;66.90
10314;DHT22;5202;49.138;10.090;2023-08-24T14:14:14;34.80;67.10
10314;DHT22;5202;49.138;10.090;2023-08-24T14:16:43;34.80;67.40
10314;DHT22;5202;49.138;10.090;2023-08-24T14:19:15;34.80;67.10
10314;DHT22;5202;49.138;10.090;2023-08-24T14:21:43;34.80;65.60
10314;DHT22;5202;49.138;10.090;2023-08-24T14:24:12;34.80;65.80
10314;DHT22;5202;49.138;10.090;2023-08-24T14:26:40;34.80;64.80
10314;DHT22;5202;49.138;10.090;2023-08-24T14:29:13;34.80;65.00
10314;DHT22;5202;49.138;10.090;2023-08-24T14:31:42;34.80;65.10
10314;DHT22;5202;49.138;10.090;2023-08-24T14:34:10;34.90;65.20
10314;DHT22;5202;49.138;10.090;2023-08-24T14:36:41;34.80;65.50
10314;DHT22;5202;49.138;10.090;2023-08-24T14:39:09;34.70;65.50
10314;DHT22;5202;49.138;10.090;2023-08-24T14:41:38;34.60;65.20
10314;DHT22;5202;49.138;10.090;2023-08-24T14:44:06;34.60;65.60
10314;DHT22;5202;49.138;10.090;2023-08-24T14:46:35;34.50;65.90
10314;DHT22;5202;49.138;10.090;2023-08-24T14:49:03;34.40;65.40
10314;DHT22;5202;49.138;10.090;2023-08-24T14:51:32;34.40;66.10
10314;DHT22;5202;49.138;10.090;2023-08-24T14:54:01;34.30;66.30
10314;DHT22;5202;49.138;10.090;2023-08-24T14:56:30;34.10;66.40
10314;DHT22;5202;49.138;10.090;2023-08-24T14:58:58;33.80;67.80
10314;DHT22;5202;49.138;10.090;2023-08-24T15:01:27;33.60;67.60
10314;DHT22;5202;49.138;10.090;2023-08-24T15:03:55;33.40;68.00
10314;DHT22;5202;49.138;10.090;2023-08-24T15:06:23;33.30;67.90
10314;DHT22;5202;49.138;10.090;2023-08-24T15:08:52;33.10;69.20
10314;DHT22;5202;49.138;10.090;2023-08-24T15:11:21;33.00;68.90
10314;DHT22;5202;49.138;10.090;2023-08-24T15:13:50;32.80;69.50
10314;DHT22;5202;49.138;10.090;2023-08-24T15:16:18;32.80;69.90
10314;DHT22;5202;49.138;10.090;2023-08-24T15:18:47;32.60;69.80
10314;DHT22;5202;49.138;10.090;2023-08-24T15:21:16;32.60;70.70
10314;DHT22;5202;49.138;10.090;2023-08-24T15:23:44;32.50;71.00
10314;DHT22;5202;49.138;10.090;2023-08-24T15:26:13;32.40;71.60
10314;DHT22;5202;49.138;10.090;2023-08-24T15:29:11;32.20;73.00
10314;DHT22;5202;49.138;10.090;2023-08-24T15:31:40;32.10;74.40
10314;DHT22;5202;49.138;10.090;2023-08-24T15:34:08;32.10;75.10
10314;DHT22;5202;49.138;10.090;2023-08-24T15:36:37;32.00;74.50
10314;DHT22;5202;49.138;10.090;2023-08-24T15:39:06;31.80;73.60
10314;DHT22;5202;49.138;10.090;2023-08-24T15:41:35;31.60;72.40
10314;DHT22;5202;49.138;10.090;2023-08-24T15:44:03;31.40;72.20
10314;DHT22;5202;49.138;10.090;2023-08-24T15:46:33;31.30;72.60